Time;durP1;ratioP1;P1;durP2;ratioP2;P2;SDS_P1;SDS_P2;PMS_P1;PMS_P2;Temp;Humidity;BMP_temperature;BMP_pressure;BME280_temperature;BME280_humidity;BME280_pressure;Samples;Min_cycle;Max_cycle;Signal;HPM_P1;HPM_P2
2022/04/01 00:06:33;;;;;;;4.2;7.2;;;;;;;1;87.3;96770;;;;
2022/04/01 00:16:33;;;;;;;4.2;7.2;;;;;;;1;87.3;96770;;;;
2022/04/01 00:27:33;;;;;;;4.2;7.2;;;;;;;1.1;87.4;96770;;;;
2022/04/01 00:38:33;;;;;;;6.3;9.4;;;;;;;1;87.4;96760;;;;
2022/04/01 00:48:33;;;;;;;6.3;9.4;;;;;;;1.1;87.3;96750;;;;
2022/04/01 00:58:33;;;;;;;6.3;9.4;;;;;;;1.1;87.2;96760;;;;
2022/04/01 01:09:33;;;;;;;6.6;10.6;;;;;;;1;87.2;96770;;;;
2022/04/01 01:20:33;;;;;;;6.6;10.6;;;;;;;1.1;87;96750;;;;
2022/04/01 01:30:33;;;;;;;6.6;10.6;;;;;;;1;87.3;96740;;;;
2022/04/01 01:41:33;;;;;;;6.9;9.5;;;;;;;1.1;87.2;96730;;;;
2022/04/01 02:01:33;;;;;;;6.9;9.5;;;;;;;1;87.4;96710;;;;
2022/04/01 02:12:33;;;;;;;6.1;8.4;;;;;;;1.1;87.2;96710;;;;
2022/04/01 02:23:34;;;;;;;6.1;8.4;;;;;;;1;87.2;96710;;;;
2022/04/01 02:34:33;;;;;;;6.3;8.6;;;;;;;1.1;87.2;96700;;;;
2022/04/01 02:45:33;;;;;;;6.3;8.6;;;;;;;1;87.2;96700;;;;
2022/04/01 02:56:33;;;;;;;6.3;8.6;;;;;;;1;87.3;96690;;;;
2022/04/01 03:07:33;;;;;;;6.1;8.9;;;;;;;1;87.4;96690;;;;
2022/04/01 03:17:33;;;;;;;6.1;8.9;;;;;;;1;87.5;96680;;;;
2022/04/01 03:28:33;;;;;;;6.1;8.9;;;;;;;1;87.5;96690;;;;
2022/04/01 03:38:33;;;;;;;6.6;9;;;;;;;0.9;87.7;96680;;;;
2022/04/01 03:49:33;;;;;;;6.6;9;;;;;;;1;87.7;96680;;;;
2022/04/01 03:59:40;;;;;;;6.6;9;;;;;;;0.9;87.7;96690;;;;
2022/04/01 04:10:34;;;;;;;6.5;10.6;;;;;;;1;87.6;96690;;;;
2022/04/01 04:20:33;;;;;;;6.5;10.6;;;;;;;1.1;87.3;96700;;;;
2022/04/01 04:30:33;;;;;;;6.5;10.6;;;;;;;1.1;87.3;96680;;;;
2022/04/01 04:41:33;;;;;;;7.5;9.7;;;;;;;1;87.3;96690;;;;
2022/04/01 04:51:33;;;;;;;7.5;9.7;;;;;;;1;87.2;96710;;;;
2022/04/01 05:01:34;;;;;;;7.5;9.7;;;;;;;1;87.3;96710;;;;
2022/04/01 05:11:33;;;;;;;6.3;8.6;;;;;;;1.1;87.1;96720;;;;
2022/04/01 05:22:36;;;;;;;6.3;8.6;;;;;;;1.1;86.9;96730;;;;
2022/04/01 05:33:34;;;;;;;5.4;9.2;;;;;;;1.2;86.8;96740;;;;
2022/04/01 05:44:33;;;;;;;5.4;9.2;;;;;;;1.2;86.5;96740;;;;
2022/04/01 05:54:34;;;;;;;5.4;9.2;;;;;;;1.2;86.6;96740;;;;
2022/04/01 06:04:34;;;;;;;5.2;8.3;;;;;;;1.5;86.1;96740;;;;
2022/04/01 06:15:33;;;;;;;5.2;8.3;;;;;;;1.7;85.9;96740;;;;
2022/04/01 06:26:33;;;;;;;5.2;8.3;;;;;;;2.1;84.5;96740;;;;
2022/04/01 06:36:33;;;;;;;6.6;9.8;;;;;;;1.9;84.3;96740;;;;
2022/04/01 06:46:33;;;;;;;6.6;9.8;;;;;;;2;83.9;96750;;;;
2022/04/01 06:57:33;;;;;;;6.6;9.8;;;;;;;2;84;96750;;;;
2022/04/01 07:08:33;;;;;;;6;7.4;;;;;;;2.1;83.3;96740;;;;
2022/04/01 07:19:33;;;;;;;6;7.4;;;;;;;2.4;82.9;96740;;;;
2022/04/01 07:30:33;;;;;;;6;7.4;;;;;;;2.2;82.5;96750;;;;
2022/04/01 07:40:33;;;;;;;7.2;9.1;;;;;;;2.6;82.3;96750;;;;
2022/04/01 07:50:33;;;;;;;7.2;9.1;;;;;;;2.8;81.4;96760;;;;
2022/04/01 08:00:33;;;;;;;7.2;9.1;;;;;;;2.8;80.9;96760;;;;
2022/04/01 08:11:33;;;;;;;9.6;11.9;;;;;;;2.5;80.6;96770;;;;
2022/04/01 08:21:33;;;;;;;9.6;11.9;;;;;;;2.6;80.9;96770;;;;
2022/04/01 08:32:35;;;;;;;9.6;11.9;;;;;;;3.1;80.1;96780;;;;
2022/04/01 08:42:33;;;;;;;8.3;10.2;;;;;;;3.5;78.8;96780;;;;
2022/04/01 08:52:33;;;;;;;8.3;10.2;;;;;;;3.2;79.8;96780;;;;
2022/04/01 09:03:34;;;;;;;9.5;12.4;;;;;;;3.4;78.5;96790;;;;
2022/04/01 09:13:33;;;;;;;9.5;12.4;;;;;;;3.8;77.8;96800;;;;
2022/04/01 09:24:33;;;;;;;9.5;12.4;;;;;;;3.8;78.4;96790;;;;
2022/04/01 09:34:36;;;;;;;11.9;15.2;;;;;;;3.5;77;96800;;;;
2022/04/01 09:44:33;;;;;;;11.9;15.2;;;;;;;3.2;78.4;96800;;;;
2022/04/01 09:55:33;;;;;;;11.9;15.2;;;;;;;3.1;79.2;96800;;;;
2022/04/01 10:05:33;;;;;;;9;10.7;;;;;;;3.5;78.6;96800;;;;
2022/04/01 10:16:34;;;;;;;9;10.7;;;;;;;3.3;78.7;96810;;;;
2022/04/01 10:27:33;;;;;;;9;10.7;;;;;;;3;78;96820;;;;
2022/04/01 10:37:33;;;;;;;6.8;8.7;;;;;;;3.2;79.3;96810;;;;
2022/04/01 10:58:33;;;;;;;6.8;8.7;;;;;;;2.7;80.1;96820;;;;
2022/04/01 11:09:33;;;;;;;5.9;7.7;;;;;;;2.4;79.8;96830;;;;
2022/04/01 11:20:35;;;;;;;5.9;7.7;;;;;;;2.8;79.9;96830;;;;
2022/04/01 11:31:33;;;;;;;5.9;7.7;;;;;;;2.8;80.5;96840;;;;
2022/04/01 11:42:33;;;;;;;5.2;8.9;;;;;;;2.7;79.6;96840;;;;
2022/04/01 11:52:34;;;;;;;5.2;8.9;;;;;;;2.8;80.5;96860;;;;
2022/04/01 12:02:33;;;;;;;5.9;7.6;;;;;;;2.6;81;96850;;;;
2022/04/01 12:13:33;;;;;;;5.9;7.6;;;;;;;2.8;80.3;96850;;;;
2022/04/01 12:23:33;;;;;;;5.9;7.6;;;;;;;3.4;79.2;96850;;;;
2022/04/01 12:34:33;;;;;;;6;8.5;;;;;;;3.4;77.3;96860;;;;
2022/04/01 12:45:33;;;;;;;6;8.5;;;;;;;3.5;77.6;96860;;;;
2022/04/01 12:55:33;;;;;;;6;8.5;;;;;;;3.4;77;96860;;;;
2022/04/01 13:06:33;;;;;;;6.3;8.6;;;;;;;4;78.8;96860;;;;
2022/04/01 13:16:33;;;;;;;6.3;8.6;;;;;;;3.7;78.1;96860;;;;
2022/04/01 13:27:33;;;;;;;6.3;8.6;;;;;;;3.2;78.2;96870;;;;
2022/04/01 13:38:33;;;;;;;7.3;10.2;;;;;;;2.8;79.4;96870;;;;
2022/04/01 13:48:33;;;;;;;7.3;10.2;;;;;;;2.9;79.9;96870;;;;
2022/04/01 13:59:33;;;;;;;7.3;10.2;;;;;;;2.8;79.4;96870;;;;
2022/04/01 14:09:33;;;;;;;8.5;10.4;;;;;;;2.8;79.8;96870;;;;
2022/04/01 14:19:33;;;;;;;8.5;10.4;;;;;;;2.8;80;96880;;;;
2022/04/01 14:30:37;;;;;;;8.5;10.4;;;;;;;2.4;80.1;96890;;;;
2022/04/01 14:40:33;;;;;;;8.5;10.1;;;;;;;2.5;80.2;96900;;;;
2022/04/01 14:51:33;;;;;;;8.5;10.1;;;;;;;2.4;81.1;96900;;;;
2022/04/01 15:01:33;;;;;;;6.7;8.5;;;;;;;2.7;81.7;96900;;;;
2022/04/01 15:11:33;;;;;;;6.7;8.5;;;;;;;2.4;81.5;96910;;;;
2022/04/01 15:22:34;;;;;;;6.7;8.5;;;;;;;2.1;81.7;96910;;;;
2022/04/01 15:33:33;;;;;;;78.7;101.8;;;;;;;2;81.8;96910;;;;
2022/04/01 15:43:33;;;;;;;78.7;101.8;;;;;;;2;81.9;96920;;;;
2022/04/01 15:53:33;;;;;;;78.7;101.8;;;;;;;2.1;82.4;96930;;;;
2022/04/01 16:04:35;;;;;;;42.3;51.7;;;;;;;2;82.5;96950;;;;
2022/04/01 16:15:33;;;;;;;42.3;51.7;;;;;;;1.8;82.9;96960;;;;
2022/04/01 16:25:33;;;;;;;42.3;51.7;;;;;;;1.7;83.2;96970;;;;
2022/04/01 16:35:33;;;;;;;32;43.5;;;;;;;1.7;83.3;96970;;;;
2022/04/01 16:46:34;;;;;;;32;43.5;;;;;;;1.4;83.7;96980;;;;
2022/04/01 16:56:33;;;;;;;32;43.5;;;;;;;1.4;84.5;96990;;;;
2022/04/01 17:17:34;;;;;;;38.9;47.4;;;;;;;1.2;84.7;97010;;;;
2022/04/01 17:27:33;;;;;;;38.9;47.4;;;;;;;1.2;84.8;97020;;;;
2022/04/01 17:38:33;;;;;;;24.2;31;;;;;;;1.1;84.8;97030;;;;
2022/04/01 17:48:33;;;;;;;24.2;31;;;;;;;1;85.2;97040;;;;
2022/04/01 17:58:35;;;;;;;24.2;31;;;;;;;1;85.5;97050;;;;
2022/04/01 18:09:35;;;;;;;36.3;49.5;;;;;;;0.9;85.2;97060;;;;
2022/04/01 18:20:34;;;;;;;36.3;49.5;;;;;;;0.9;85.2;97060;;;;
2022/04/01 18:31:34;;;;;;;64.3;99;;;;;;;0.9;85.3;97060;;;;
2022/04/01 18:42:33;;;;;;;64.3;99;;;;;;;1;85.5;97070;;;;
2022/04/01 18:52:33;;;;;;;64.3;99;;;;;;;0.9;85.2;97070;;;;
2022/04/01 19:02:33;;;;;;;13.7;16.9;;;;;;;1;85.5;97070;;;;
2022/04/01 19:12:33;;;;;;;13.7;16.9;;;;;;;0.9;85.3;97070;;;;
2022/04/01 19:23:33;;;;;;;13.7;16.9;;;;;;;0.9;85;97070;;;;
2022/04/01 19:33:33;;;;;;;12.2;16.4;;;;;;;0.9;84.9;97080;;;;
2022/04/01 19:43:33;;;;;;;12.2;16.4;;;;;;;1;85.5;97080;;;;
2022/04/01 19:53:33;;;;;;;12.2;16.4;;;;;;;0.9;85.3;97080;;;;
2022/04/01 20:04:33;;;;;;;13;18.5;;;;;;;0.9;85.3;97090;;;;
2022/04/01 20:15:33;;;;;;;13;18.5;;;;;;;0.8;85.3;97100;;;;
2022/04/01 20:25:33;;;;;;;13;18.5;;;;;;;0.8;85.3;97110;;;;
2022/04/01 20:35:33;;;;;;;13.2;18.9;;;;;;;0.8;85;97110;;;;
2022/04/01 20:46:33;;;;;;;13.2;18.9;;;;;;;0.9;85.2;97110;;;;
2022/04/01 20:57:34;;;;;;;13.2;18.9;;;;;;;0.9;85;97120;;;;
2022/04/01 21:07:35;;;;;;;15.2;20.8;;;;;;;0.7;84.1;97130;;;;
2022/04/01 21:17:33;;;;;;;15.2;20.8;;;;;;;0.8;84.6;97140;;;;
2022/04/01 21:27:33;;;;;;;15.2;20.8;;;;;;;0.8;84.4;97140;;;;
2022/04/01 21:37:33;;;;;;;10.6;14.9;;;;;;;0.7;83.9;97140;;;;
2022/04/01 21:48:33;;;;;;;10.6;14.9;;;;;;;0.8;83.9;97130;;;;
2022/04/01 21:58:33;;;;;;;10.6;14.9;;;;;;;0.8;84.5;97130;;;;
2022/04/01 22:08:35;;;;;;;8.5;10.8;;;;;;;0.8;84.2;97130;;;;
2022/04/01 22:18:33;;;;;;;8.5;10.8;;;;;;;0.8;83.6;97120;;;;
2022/04/01 22:29:33;;;;;;;8.5;10.8;;;;;;;0.8;83.3;97120;;;;
2022/04/01 22:39:33;;;;;;;8.3;10.7;;;;;;;0.8;83.3;97110;;;;
2022/04/01 22:49:33;;;;;;;8.3;10.7;;;;;;;0.8;83;97110;;;;
2022/04/01 22:59:33;;;;;;;8.3;10.7;;;;;;;0.8;83;97120;;;;
2022/04/01 23:09:33;;;;;;;9.4;11.9;;;;;;;0.7;82.2;97110;;;;
2022/04/01 23:19:34;;;;;;;9.4;11.9;;;;;;;0.8;82.6;97100;;;;
2022/04/01 23:30:33;;;;;;;9.3;11.5;;;;;;;0.8;83;97100;;;;
2022/04/01 23:40:34;;;;;;;9.3;11.5;;;;;;;0.8;82.8;97100;;;;
2022/04/01 23:50:34;;;;;;;9.3;11.5;;;;;;;0.8;82.7;97100;;;;
